MST,Max TemperatureF,Mean TemperatureF,Min TemperatureF,Max Dew PointF,MeanDew PointF,Min DewpointF,Max Humidity, Mean Humidity, Min Humidity, Max Sea Level PressureIn, Mean Sea Level PressureIn, Min Sea Level PressureIn, Max VisibilityMiles, Mean VisibilityMiles, Min VisibilityMiles, Max Wind SpeedMPH, Mean Wind SpeedMPH, Max Gust SpeedMPH,PrecipitationIn, CloudCover, Events, WindDirDegrees
2012-11-1,60,49,37,39,34,26,79,53,27,30.04,29.92,29.78,10,10,10,18,5,25,T,3,,239
2012-11-2,60,44,28,35,30,27,85,58,31,30.17,30.12,30.05,10,10,10,8,2,10,0.00,0,,193
2012-11-3,61,44,27,34,29,26,92,61,29,30.26,30.20,30.12,10,10,10,10,2,12,0.00,0,,220
2012-11-4,62,48,33,35,32,27,75,55,34,30.42,30.33,30.22,10,10,10,12,5,15,0.00,1,,235
2012-11-5,63,49,34,44,37,30,83,65,47,30.45,30.35,30.28,10,10,10,14,6,20,0.00,0,,233
2012-11-6,70,52,33,40,35,32,96,62,28,30.33,30.19,30.00,10,10,9,26,5,31,0.00,0,,128
2012-11-7,69,53,36,37,32,29,76,50,24,30.03,29.92,29.81,10,10,10,21,7,28,0.00,0,,233
2012-11-8,54,44,34,38,36,33,92,69,46,29.79,29.65,29.51,10,9,4,20,5,30,0.17,6,Rain-Snow,304
2012-11-9,38,34,29,34,30,25,100,82,64,29.75,29.69,29.63,10,8,1,14,8,20,0.17,6,Rain-Snow,239
2012-11-10,36,31,25,24,21,18,85,66,47,30.05,29.84,29.71,10,10,10,22,14,30,T,2,Rain,257
2012-11-11,36,29,21,19,18,15,92,68,44,30.47,30.31,30.08,10,10,10,24,13,31,0.00,1,Rain,253
2012-11-12,41,32,22,30,22,16,92,65,37,30.49,30.42,30.35,10,8,2,16,6,22,T,6,Snow,133
2012-11-13,49,40,30,31,29,26,92,69,46,30.39,30.31,30.21,10,10,10,13,3,16,0.00,6,,65
2012-11-14,43,38,32,39,34,28,100,88,75,30.33,30.26,30.19,10,8,1,8,2,9,0.01,7,Rain,256
2012-11-15,49,41,32,35,33,29,100,78,56,30.37,30.25,30.11,10,10,10,17,11,23,0.00,3,,61
2012-11-16,53,43,33,35,32,28,92,69,46,30.09,30.05,29.99,10,10,10,24,6,29,T,5,,49
2012-11-17,59,49,39,40,36,32,85,63,40,30.01,29.90,29.78,10,10,10,23,9,29,0.02,7,Rain,174
2012-11-18,50,42,34,42,37,34,100,88,76,30.14,29.98,29.79,10,10,10,26,6,32,0.08,7,Rain,229
2012-11-19,56,45,34,41,38,33,100,76,51,30.20,30.15,30.11,10,10,10,20,7,28,0.01,6,Rain,198
2012-11-20,52,49,45,44,38,34,86,68,50,30.11,30.01,29.88,10,10,10,24,12,31,0.07,5,Rain,184
2012-11-21,56,45,33,39,33,27,82,63,43,30.21,29.95,29.82,10,10,7,25,16,33,0.03,6,Rain,235
2012-11-22,44,34,24,27,25,22,92,69,45,30.55,30.44,30.23,10,10,10,14,6,18,0.00,0,,243
2012-11-23,52,37,22,30,26,22,92,65,38,30.53,30.42,30.28,10,10,10,15,5,17,0.00,0,,66
2012-11-24,57,39,21,30,27,20,100,65,30,30.27,30.17,29.99,10,10,10,14,5,18,0.00,1,,249
2012-11-25,43,38,32,39,34,27,100,85,70,30.23,30.06,29.97,10,9,3,22,11,31,0.06,8,Rain,248
2012-11-26,42,33,23,29,27,23,92,76,60,30.33,30.27,30.22,10,10,10,14,5,17,0.00,1,,61
2012-11-27,52,37,22,35,28,22,92,71,50,30.31,30.24,30.18,10,10,9,12,6,14,0.00,0,,47
2012-11-28,56,42,28,34,30,26,92,65,38,30.17,30.04,29.93,10,10,5,20,7,29,T,2,Rain,50
2012-11-29,55,42,29,38,32,30,100,72,44,30.09,29.99,29.87,10,10,10,22,9,29,T,3,,188
2012-11-30,53,47,40,44,39,31,100,73,46,29.89,29.82,29.73,10,8,4,21,9,32,0.71,8,Rain,236